Time;durP1;ratioP1;P1;durP2;ratioP2;P2;SDS_P1;SDS_P2;PMS_P1;PMS_P2;Temp;Humidity;BMP_temperature;BMP_pressure;BME280_temperature;BME280_humidity;BME280_pressure;Samples;Min_cycle;Max_cycle;Signal;HPM_P1;HPM_P2
2022/06/29 00:00:37;;;;;;;9.95;4.90;;;17.30;99.90;;;;;;5072786;28;20115;-64
2022/06/29 00:03:04;;;;;;;12.95;6.85;;;17.20;99.90;;;;;;5073978;28;20044;-64
2022/06/29 00:05:31;;;;;;;;;;;17.30;99.90;;;;;;5074150;28;20523;-64
2022/06/29 00:07:58;;;;;;;12.23;5.72;;;17.30;99.90;;;;;;5073024;28;19942;-64
2022/06/29 00:10:33;;;;;;;11.75;5.90;;;17.20;99.90;;;;;;5073291;28;20045;-64
2022/06/29 00:13:00;;;;;;;7.93;6.30;;;17.30;99.90;;;;;;5073775;28;20036;-64
2022/06/29 00:15:27;;;;;;;9.68;6.57;;;17.30;99.90;;;;;;5073860;28;20036;-63
2022/06/29 00:17:54;;;;;;;10.43;6.95;;;17.30;99.90;;;;;;5072880;28;20048;-64
2022/06/29 00:20:21;;;;;;;11.77;6.53;;;17.30;99.90;;;;;;5072978;28;20048;-64
2022/06/29 00:22:48;;;;;;;10.63;6.72;;;17.30;99.90;;;;;;5073627;28;20040;-63
2022/06/29 00:25:16;;;;;;;12.68;6.90;;;17.30;99.90;;;;;;5072543;28;20051;-64
2022/06/29 00:27:43;;;;;;;;;;;17.30;99.90;;;;;;5073716;28;20049;-64
2022/06/29 00:30:10;;;;;;;9.23;6.18;;;17.30;99.90;;;;;;5088664;28;19924;-64
2022/06/29 00:32:37;;;;;;;11.50;6.50;;;17.30;99.90;;;;;;5072871;28;20036;-64
2022/06/29 00:35:05;;;;;;;12.88;7.30;;;17.30;99.90;;;;;;5072716;28;20512;-64
2022/06/29 00:37:32;;;;;;;10.52;7.35;;;17.30;99.90;;;;;;5073226;28;20037;-64
2022/06/29 00:40:00;;;;;;;10.57;7.10;;;17.30;99.90;;;;;;5072355;28;20032;-64
2022/06/29 00:42:27;;;;;;;12.38;6.90;;;17.20;99.90;;;;;;5072933;28;20503;-64
2022/06/29 00:44:53;;;;;;;9.82;6.38;;;17.20;99.90;;;;;;5072964;28;20048;-64
2022/06/29 00:47:22;;;;;;;12.40;6.68;;;17.20;99.90;;;;;;5073148;28;20463;-64
2022/06/29 00:49:49;;;;;;;12.05;7.22;;;17.10;99.90;;;;;;5072105;28;20493;-64
2022/06/29 00:52:20;;;;;;;11.35;6.88;;;17.10;99.90;;;;;;5072466;28;20039;-64
2022/06/29 00:54:56;;;;;;;15.80;6.38;;;17.20;99.90;;;;;;5072791;28;20040;-64
2022/06/29 00:57:25;;;;;;;12.20;5.57;;;17.20;99.90;;;;;;5072928;28;20052;-64
2022/06/29 00:59:58;;;;;;;8.57;5.35;;;17.20;99.90;;;;;;5071857;28;20409;-64
2022/06/29 01:02:29;;;;;;;12.15;4.88;;;17.30;99.90;;;;;;5072764;28;20033;-64
2022/06/29 01:04:55;;;;;;;6.72;4.55;;;17.30;99.90;;;;;;5072773;28;20508;-64
2022/06/29 01:07:26;;;;;;;6.85;4.28;;;17.30;99.90;;;;;;5072511;28;20045;-64
2022/06/29 01:09:53;;;;;;;7.57;4.25;;;17.30;99.90;;;;;;5071324;28;20497;-64
2022/06/29 01:12:20;;;;;;;8.20;4.15;;;17.30;99.90;;;;;;5072685;28;20048;-64
2022/06/29 01:14:49;;;;;;;10.52;4.82;;;17.30;99.90;;;;;;5072767;28;20554;-64
2022/06/29 01:17:16;;;;;;;7.85;5.22;;;17.30;99.90;;;;;;5071729;28;20039;-64
2022/06/29 01:19:43;;;;;;;9.57;5.15;;;17.30;99.90;;;;;;5072358;28;20046;-64
2022/06/29 01:22:15;;;;;;;11.55;5.30;;;17.30;99.90;;;;;;5072254;28;20051;-64
2022/06/29 01:24:44;;;;;;;9.93;4.80;;;17.30;99.90;;;;;;5072562;28;20048;-64
2022/06/29 01:27:13;;;;;;;10.20;4.78;;;17.30;99.90;;;;;;5071966;28;20405;-64
2022/06/29 01:29:40;;;;;;;11.90;4.55;;;17.20;99.90;;;;;;5062776;28;20509;-64
2022/06/29 01:32:07;;;;;;;9.55;4.80;;;17.10;99.90;;;;;;5072012;28;20048;-64
2022/06/29 01:34:35;;;;;;;12.13;5.40;;;17.10;99.90;;;;;;5071596;28;20141;-64
2022/06/29 01:37:03;;;;;;;12.93;5.60;;;17.10;99.90;;;;;;5063585;28;20056;-64
2022/06/29 01:39:31;;;;;;;9.07;5.53;;;17.10;99.90;;;;;;5071853;28;20037;-64
2022/06/29 01:41:58;;;;;;;11.80;4.85;;;17.10;99.90;;;;;;5088070;22;20068;-64
2022/06/29 01:44:25;;;;;;;10.52;6.05;;;17.00;99.90;;;;;;5092118;28;20462;-64
2022/06/29 01:46:51;;;;;;;12.45;5.68;;;17.10;99.90;;;;;;5092447;28;20048;-64
2022/06/29 01:49:18;;;;;;;10.95;5.50;;;17.10;99.90;;;;;;5092111;28;20432;-64
2022/06/29 01:51:45;;;;;;;10.98;5.95;;;17.10;99.90;;;;;;5078094;28;20520;-64
2022/06/29 01:54:12;;;;;;;10.02;5.38;;;17.10;99.90;;;;;;5062484;28;20440;-64
2022/06/29 01:56:39;;;;;;;17.30;6.60;;;17.00;99.90;;;;;;5071967;28;20045;-64
2022/06/29 01:59:06;;;;;;;11.20;5.70;;;17.00;99.90;;;;;;5071603;28;20764;-64
2022/06/29 02:01:33;;;;;;;9.75;6.00;;;17.00;99.90;;;;;;5064053;28;20029;-64
2022/06/29 02:04:00;;;;;;;10.05;5.53;;;17.00;99.90;;;;;;5071703;28;20044;-64
2022/06/29 02:06:26;;;;;;;11.95;5.90;;;17.10;99.90;;;;;;5071904;28;20037;-64
2022/06/29 02:08:53;;;;;;;14.30;6.10;;;17.00;99.90;;;;;;5071675;28;20471;-64
2022/06/29 02:11:20;;;;;;;11.40;6.35;;;16.90;99.90;;;;;;5086008;22;20033;-63
2022/06/29 02:13:47;;;;;;;15.73;5.95;;;16.90;99.90;;;;;;5069975;28;20495;-63
2022/06/29 02:16:45;;;;;;;11.15;6.22;;;16.90;99.90;;;;;;5071147;28;20048;-63
2022/06/29 02:19:11;;;;;;;9.95;5.05;;;16.90;99.90;;;;;;5071594;28;20055;-63
2022/06/29 02:21:38;;;;;;;11.65;5.95;;;16.90;99.90;;;;;;5065186;28;20049;-63
2022/06/29 02:24:05;;;;;;;7.70;5.03;;;16.90;99.90;;;;;;5051489;28;20575;-63
2022/06/29 02:26:32;;;;;;;11.35;5.35;;;16.90;99.90;;;;;;5051510;28;20382;-63
2022/06/29 02:28:59;;;;;;;;;;;16.90;99.90;;;;;;5051947;28;20049;-63
2022/06/29 02:36:57;;;;;;;13.13;5.10;;;16.90;99.90;;;;;;5051449;28;20107;-63
2022/06/29 02:39:23;;;;;;;10.07;5.18;;;16.90;99.90;;;;;;5051467;28;20445;-63
2022/06/29 02:41:50;;;;;;;11.57;5.28;;;16.90;99.90;;;;;;5048142;28;20048;-63
2022/06/29 02:44:17;;;;;;;9.80;6.15;;;16.90;99.90;;;;;;5051081;28;20041;-63
2022/06/29 02:46:43;;;;;;;7.93;5.07;;;16.90;99.90;;;;;;5051061;28;20066;-63
2022/06/29 02:49:10;;;;;;;10.00;5.30;;;16.90;99.90;;;;;;5048517;28;20643;-63
2022/06/29 02:51:37;;;;;;;12.05;6.30;;;16.90;99.90;;;;;;5047396;28;20055;-63
2022/06/29 02:54:04;;;;;;;13.57;5.28;;;16.90;99.90;;;;;;5051102;28;20049;-64
2022/06/29 02:56:31;;;;;;;9.10;5.38;;;16.90;99.90;;;;;;5051280;28;20045;-63
2022/06/29 02:58:57;;;;;;;12.35;5.45;;;16.90;99.90;;;;;;5050546;28;20041;-63
2022/06/29 03:01:24;;;;;;;7.78;5.10;;;16.90;99.90;;;;;;5050583;28;20036;-63
2022/06/29 03:03:51;;;;;;;10.38;5.20;;;16.90;99.90;;;;;;5051013;28;20045;-63
2022/06/29 03:06:18;;;;;;;10.18;5.93;;;16.80;99.90;;;;;;5050625;28;20091;-63
2022/06/29 03:08:44;;;;;;;11.65;6.00;;;16.80;99.90;;;;;;5051004;28;20044;-63
2022/06/29 03:11:11;;;;;;;10.90;6.15;;;16.80;99.90;;;;;;5050682;28;20639;-63
2022/06/29 03:13:38;;;;;;;8.32;5.53;;;16.90;99.90;;;;;;5050762;28;20075;-63
2022/06/29 03:16:05;;;;;;;9.55;5.07;;;16.80;99.90;;;;;;5050312;28;20041;-63
2022/06/29 03:18:32;;;;;;;12.75;5.47;;;16.80;99.90;;;;;;5050967;28;20049;-63
2022/06/29 03:20:58;;;;;;;9.10;5.60;;;16.80;99.90;;;;;;5050647;28;20040;-63
2022/06/29 03:23:25;;;;;;;11.07;6.03;;;16.80;99.90;;;;;;5050391;28;20037;-63
2022/06/29 03:25:52;;;;;;;12.45;6.15;;;16.90;99.90;;;;;;5050512;28;20041;-63
2022/06/29 03:28:19;;;;;;;12.48;5.78;;;16.80;99.90;;;;;;5050769;28;20099;-63
2022/06/29 03:30:45;;;;;;;9.68;6.25;;;16.90;99.90;;;;;;5050481;28;20041;-63
2022/06/29 03:33:12;;;;;;;10.80;5.65;;;16.80;99.90;;;;;;5041805;28;20045;-63
2022/06/29 03:35:39;;;;;;;12.43;5.72;;;16.80;99.90;;;;;;5050662;28;20041;-63
2022/06/29 03:38:06;;;;;;;10.10;6.25;;;16.90;99.90;;;;;;5050912;28;20045;-63
2022/06/29 03:40:32;;;;;;;7.97;5.15;;;16.90;99.90;;;;;;5049897;28;20041;-63
2022/06/29 03:42:59;;;;;;;9.98;6.20;;;17.00;99.90;;;;;;5050321;28;20456;-63
2022/06/29 03:45:26;;;;;;;12.05;5.20;;;17.00;99.90;;;;;;5050701;28;20456;-63
2022/06/29 03:47:53;;;;;;;8.23;5.78;;;17.00;99.90;;;;;;5050814;28;20562;-63
2022/06/29 03:50:20;;;;;;;9.55;5.47;;;17.00;99.90;;;;;;5049789;28;20093;-63
2022/06/29 03:52:46;;;;;;;7.03;5.13;;;17.00;99.90;;;;;;5050588;28;20041;-63
2022/06/29 03:55:13;;;;;;;10.48;5.45;;;17.00;99.90;;;;;;5050329;28;20045;-63
2022/06/29 03:57:40;;;;;;;7.63;5.03;;;17.00;99.90;;;;;;5050118;28;20033;-63
2022/06/29 04:00:09;;;;;;;9.93;5.90;;;17.00;99.90;;;;;;5050054;28;20036;-63
2022/06/29 04:02:40;;;;;;;8.80;4.88;;;17.00;99.90;;;;;;5053878;28;20048;-63
2022/06/29 04:05:07;;;;;;;8.43;5.30;;;17.00;99.90;;;;;;5053680;28;20045;-63
2022/06/29 04:07:34;;;;;;;9.57;5.80;;;17.00;99.90;;;;;;5053984;28;20040;-63
2022/06/29 04:10:01;;;;;;;12.95;5.47;;;17.00;99.90;;;;;;5033354;28;20056;-63
2022/06/29 04:12:29;;;;;;;8.63;5.53;;;16.90;99.90;;;;;;5033808;28;20563;-63
2022/06/29 04:14:56;;;;;;;11.35;5.78;;;16.80;99.90;;;;;;5045332;28;20049;-63
2022/06/29 04:17:23;;;;;;;;;;;16.70;99.90;;;;;;5064690;28;20036;-63
2022/06/29 04:19:53;;;;;;;11.77;6.95;;;16.70;99.90;;;;;;5054936;28;19924;-63
2022/06/29 04:22:20;;;;;;;12.63;7.05;;;16.60;99.90;;;;;;5053097;28;20045;-62
2022/06/29 04:24:47;;;;;;;15.43;7.32;;;16.60;99.90;;;;;;5053601;28;20048;-62
2022/06/29 04:27:14;;;;;;;13.70;7.18;;;16.50;99.90;;;;;;5065648;28;20098;-63
2022/06/29 04:29:41;;;;;;;12.50;7.38;;;16.50;99.90;;;;;;5070890;28;20099;-62
2022/06/29 04:32:08;;;;;;;17.63;7.88;;;16.60;99.90;;;;;;5066025;28;20501;-63
2022/06/29 04:34:39;;;;;;;11.55;7.63;;;16.60;99.90;;;;;;5053241;28;20060;-63
2022/06/29 04:37:06;;;;;;;10.13;7.80;;;16.60;99.90;;;;;;5053333;28;20045;-63
2022/06/29 04:39:33;;;;;;;6.78;5.50;;;16.60;99.90;;;;;;5053504;28;20037;-63
2022/06/29 04:42:00;;;;;;;14.38;6.32;;;16.70;99.90;;;;;;5052465;28;20044;-63
2022/06/29 04:44:26;;;;;;;8.85;5.95;;;16.70;99.90;;;;;;5053458;28;20521;-63
2022/06/29 04:46:54;;;;;;;10.20;5.78;;;16.90;99.90;;;;;;5053368;28;20099;-63
2022/06/29 04:49:21;;;;;;;6.82;4.78;;;16.90;99.90;;;;;;5053191;28;20049;-63
2022/06/29 04:51:47;;;;;;;12.75;5.68;;;16.90;99.90;;;;;;5052082;28;20090;-63
2022/06/29 04:54:14;;;;;;;11.10;4.57;;;17.00;99.90;;;;;;5053188;28;20048;-63
2022/06/29 04:56:41;;;;;;;10.80;4.85;;;17.10;99.90;;;;;;5068006;28;20044;-63
2022/06/29 04:59:07;;;;;;;6.20;4.32;;;17.20;99.90;;;;;;5068859;28;20485;-63
2022/06/29 05:01:34;;;;;;;8.18;4.90;;;17.20;99.90;;;;;;5062793;28;20052;-63
2022/06/29 05:04:01;;;;;;;10.02;5.40;;;17.30;99.90;;;;;;5070176;28;20067;-63
2022/06/29 05:06:28;;;;;;;9.43;4.72;;;17.30;99.90;;;;;;5068080;28;20515;-63
2022/06/29 05:08:56;;;;;;;8.25;5.28;;;17.40;99.90;;;;;;5057565;28;20123;-62
2022/06/29 05:11:23;;;;;;;9.13;5.93;;;17.40;99.90;;;;;;5054569;28;20033;-63
2022/06/29 05:13:50;;;;;;;17.20;10.40;;;17.40;99.90;;;;;;5060750;28;20045;-63
2022/06/29 05:16:19;;;;;;;11.95;5.15;;;17.50;99.90;;;;;;5062473;28;20094;-63
2022/06/29 05:18:47;;;;;;;7.93;5.30;;;17.50;99.90;;;;;;5052931;28;20044;-63
2022/06/29 05:21:14;;;;;;;;;;;17.50;99.90;;;;;;5061754;28;20036;-63
2022/06/29 05:23:41;;;;;;;8.50;4.35;;;17.40;99.90;;;;;;5063989;28;20019;-63
2022/06/29 05:26:08;;;;;;;;;;;17.50;99.90;;;;;;5068036;28;20062;-63
2022/06/29 05:28:35;;;;;;;7.40;4.90;;;17.50;99.90;;;;;;5048889;28;19927;-63
2022/06/29 05:31:02;;;;;;;10.43;5.75;;;17.50;99.90;;;;;;5043110;28;20044;-63
2022/06/29 05:33:36;;;;;;;9.20;4.82;;;17.60;99.90;;;;;;5064672;28;20064;-63
2022/06/29 05:36:07;;;;;;;10.10;5.78;;;17.70;99.90;;;;;;5045673;28;20033;-63
2022/06/29 05:38:35;;;;;;;8.60;4.50;;;17.70;99.90;;;;;;5060252;28;20111;-63
2022/06/29 05:41:02;;;;;;;13.25;4.88;;;17.70;99.90;;;;;;5036865;28;20434;-63
2022/06/29 05:43:30;;;;;;;;;;;17.60;99.90;;;;;;5067680;28;20102;-63
2022/06/29 05:45:59;;;;;;;7.55;3.97;;;17.60;99.90;;;;;;5058521;28;19920;-64
2022/06/29 05:48:26;;;;;;;9.25;4.38;;;17.50;99.90;;;;;;5049599;28;20079;-63
2022/06/29 05:50:53;;;;;;;9.98;4.95;;;17.60;99.90;;;;;;5061083;28;20048;-63
2022/06/29 05:53:20;;;;;;;8.27;4.82;;;17.70;99.90;;;;;;5071013;28;20040;-63
2022/06/29 05:55:46;;;;;;;6.75;4.55;;;17.80;99.90;;;;;;5054460;28;20038;-63
2022/06/29 05:58:19;;;;;;;8.55;5.32;;;17.90;99.90;;;;;;5051455;28;20464;-63
2022/06/29 06:00:47;;;;;;;10.27;5.05;;;17.80;99.90;;;;;;5056752;28;20115;-63
2022/06/29 06:03:14;;;;;;;11.65;5.22;;;17.90;99.90;;;;;;5058782;28;20424;-63
2022/06/29 06:05:41;;;;;;;12.43;5.30;;;18.00;99.90;;;;;;5050341;28;20087;-63
2022/06/29 06:08:08;;;;;;;8.85;5.20;;;17.90;99.90;;;;;;5051665;28;20045;-63
2022/06/29 06:10:35;;;;;;;11.32;5.85;;;17.90;99.90;;;;;;5051150;28;20041;-63
2022/06/29 06:13:02;;;;;;;10.75;6.45;;;17.90;99.90;;;;;;5050659;28;20568;-64
2022/06/29 06:15:29;;;;;;;;;;;17.90;99.90;;;;;;5051567;28;20036;-63
2022/06/29 06:17:56;;;;;;;8.48;5.53;;;17.80;99.90;;;;;;5051351;28;19928;-63
2022/06/29 06:20:22;;;;;;;6.45;5.00;;;17.80;99.90;;;;;;5050537;28;20774;-63
2022/06/29 06:22:49;;;;;;;12.45;5.13;;;17.80;99.90;;;;;;5051214;28;20041;-63
2022/06/29 06:25:16;;;;;;;7.40;4.65;;;17.80;99.90;;;;;;5050600;28;20115;-63
2022/06/29 06:27:43;;;;;;;6.68;4.50;;;17.80;99.90;;;;;;5051206;28;20098;-63
2022/06/29 06:30:10;;;;;;;8.75;5.05;;;17.90;99.90;;;;;;5050103;28;20041;-63
2022/06/29 06:32:36;;;;;;;;;;;17.90;99.90;;;;;;5051508;28;20059;-63
2022/06/29 06:35:04;;;;;;;8.05;4.80;;;17.90;99.90;;;;;;5051135;28;20335;-63
2022/06/29 06:37:30;;;;;;;;;;;18.00;99.90;;;;;;5051272;28;20033;-63
2022/06/29 06:42:42;;;;;;;9.70;4.45;;;18.00;99.90;;;;;;5051210;28;20464;-63
2022/06/29 06:45:09;;;;;;;12.57;5.75;;;18.00;99.90;;;;;;5050932;28;20045;-63
2022/06/29 06:48:01;;;;;;;8.05;5.05;;;18.10;99.90;;;;;;5051409;28;20036;-63
2022/06/29 06:50:27;;;;;;;9.15;5.35;;;18.10;99.90;;;;;;5064480;28;20063;-63
2022/06/29 06:52:54;;;;;;;12.00;5.88;;;18.10;99.90;;;;;;5070150;28;20040;-63
2022/06/29 06:55:21;;;;;;;9.77;5.40;;;18.10;99.90;;;;;;5047162;28;20045;-63
2022/06/29 06:57:48;;;;;;;8.15;5.15;;;18.00;99.90;;;;;;5066745;28;20051;-63
2022/06/29 07:00:14;;;;;;;10.80;5.68;;;18.10;99.90;;;;;;5065387;28;20044;-62
2022/06/29 07:02:41;;;;;;;15.40;6.18;;;18.20;99.90;;;;;;5067707;28;20040;-62
2022/06/29 07:05:08;;;;;;;16.55;6.07;;;18.00;99.90;;;;;;5051664;28;20044;-63
2022/06/29 07:07:35;;;;;;;10.85;7.15;;;18.00;99.90;;;;;;5051046;28;20064;-62
2022/06/29 07:10:02;;;;;;;13.10;5.97;;;18.10;99.90;;;;;;5050634;28;20091;-63
2022/06/29 07:12:29;;;;;;;;;;;18.10;99.90;;;;;;5050608;28;20280;-62
2022/06/29 07:14:55;;;;;;;9.90;5.75;;;18.20;99.90;;;;;;5050859;28;19986;-62
2022/06/29 07:17:22;;;;;;;10.25;5.30;;;18.20;99.90;;;;;;5050467;28;20120;-63
2022/06/29 07:19:49;;;;;;;10.70;5.70;;;18.20;99.90;;;;;;5050899;28;20048;-63
2022/06/29 07:22:15;;;;;;;10.40;5.53;;;18.20;99.90;;;;;;5049860;28;20424;-62
2022/06/29 07:24:42;;;;;;;8.00;6.10;;;18.00;99.90;;;;;;5051025;28;20044;-62
2022/06/29 07:27:09;;;;;;;9.05;5.65;;;18.00;99.90;;;;;;5049124;28;20564;-62
2022/06/29 07:29:36;;;;;;;10.45;5.75;;;18.10;99.90;;;;;;5050632;28;20045;-63
2022/06/29 07:32:03;;;;;;;9.02;5.47;;;18.20;99.90;;;;;;5059269;28;20067;-63
2022/06/29 07:34:29;;;;;;;10.93;4.30;;;18.30;99.90;;;;;;5061472;28;20041;-62
2022/06/29 07:36:56;;;;;;;8.30;4.18;;;18.50;99.90;;;;;;5052878;28;20068;-63
2022/06/29 07:39:23;;;;;;;10.88;5.20;;;18.60;99.90;;;;;;5054695;28;20059;-63
2022/06/29 07:41:57;;;;;;;9.73;5.30;;;18.80;99.90;;;;;;5054002;28;20052;-63
2022/06/29 07:44:24;;;;;;;7.57;4.80;;;19.00;99.90;;;;;;5052942;28;20040;-63
2022/06/29 07:46:51;;;;;;;8.40;4.05;;;19.00;99.90;;;;;;5054404;28;20049;-63
2022/06/29 07:49:18;;;;;;;6.20;4.40;;;19.20;99.90;;;;;;5054454;28;20056;-63
2022/06/29 07:51:44;;;;;;;10.15;4.90;;;19.40;99.90;;;;;;5054079;28;20045;-63
2022/06/29 07:54:11;;;;;;;9.10;5.13;;;19.60;99.90;;;;;;5053513;28;20037;-63
2022/06/29 07:56:38;;;;;;;7.43;4.30;;;19.60;99.90;;;;;;5054242;28;20075;-63
2022/06/29 07:59:19;;;;;;;5.35;4.63;;;19.60;99.90;;;;;;5054243;28;20048;-63
2022/06/29 08:01:45;;;;;;;7.60;3.88;;;19.50;99.90;;;;;;5064492;28;20097;-63
2022/06/29 08:04:12;;;;;;;6.18;4.03;;;19.60;99.90;;;;;;5068213;28;20041;-63
2022/06/29 08:06:39;;;;;;;6.15;4.50;;;19.80;99.90;;;;;;5070702;28;20542;-63
2022/06/29 08:09:06;;;;;;;10.80;4.95;;;19.80;99.90;;;;;;5073222;28;20497;-63
2022/06/29 08:11:33;;;;;;;;;;;19.60;99.90;;;;;;5053265;28;20047;-61
2022/06/29 08:14:25;;;;;;;9.60;4.93;;;19.60;99.90;;;;;;5112050;22;19934;-62
2022/06/29 08:16:51;;;;;;;10.80;4.93;;;19.70;99.90;;;;;;5093257;28;20044;-64
2022/06/29 08:19:18;;;;;;;11.73;5.65;;;19.80;99.90;;;;;;5088630;28;20439;-64
2022/06/29 08:21:45;;;;;;;6.30;4.25;;;19.90;99.90;;;;;;5096123;28;20047;-64
2022/06/29 08:24:12;;;;;;;12.00;5.07;;;20.00;99.90;;;;;;5073686;28;20041;-65
2022/06/29 08:26:38;;;;;;;11.40;4.72;;;20.10;99.90;;;;;;5073634;28;20032;-64
2022/06/29 08:29:25;;;;;;;7.75;4.72;;;20.20;99.90;;;;;;5073213;28;20106;-64
2022/06/29 08:31:52;;;;;;;6.80;4.47;;;20.20;99.90;;;;;;5073005;28;20384;-64
2022/06/29 08:34:25;;;;;;;12.82;5.63;;;20.30;99.90;;;;;;5073555;28;20044;-64
2022/06/29 08:36:51;;;;;;;12.23;4.90;;;20.30;99.90;;;;;;5073549;28;20052;-64
2022/06/29 08:39:18;;;;;;;9.07;4.72;;;20.40;99.90;;;;;;5051586;28;20045;-64
2022/06/29 08:41:45;;;;;;;8.77;4.97;;;20.50;99.90;;;;;;5070812;28;20039;-62
2022/06/29 08:44:12;;;;;;;11.98;5.43;;;20.70;99.90;;;;;;5073208;28;20045;-64
2022/06/29 08:46:39;;;;;;;10.48;5.13;;;20.80;99.90;;;;;;5072960;28;20108;-65
2022/06/29 08:49:06;;;;;;;8.27;4.30;;;20.80;99.90;;;;;;5070378;28;20562;-64
2022/06/29 08:51:39;;;;;;;11.30;4.43;;;20.80;99.90;;;;;;5069714;28;20038;-64
2022/06/29 08:54:06;;;;;;;11.98;5.13;;;20.80;99.90;;;;;;5078721;28;20140;-62
2022/06/29 08:56:34;;;;;;;;;;;20.80;99.90;;;;;;5084927;28;20485;-63
2022/06/29 08:59:03;;;;;;;9.15;4.43;;;20.80;99.90;;;;;;5072859;28;20507;-63
2022/06/29 09:01:30;;;;;;;9.68;5.00;;;20.90;99.90;;;;;;5067142;28;20455;-63
2022/06/29 09:03:57;;;;;;;7.57;4.78;;;21.10;99.90;;;;;;5084153;28;20044;-63
2022/06/29 09:06:23;;;;;;;6.30;4.72;;;21.10;99.90;;;;;;5086399;28;20419;-63
2022/06/29 09:08:51;;;;;;;8.55;5.07;;;21.20;99.90;;;;;;5075955;28;20040;-63
2022/06/29 09:11:21;;;;;;;;;;;21.30;99.90;;;;;;5093069;28;20051;-63
2022/06/29 09:14:09;;;;;;;5.78;3.80;;;21.50;99.90;;;;;;5092916;28;19930;-63
2022/06/29 09:16:52;;;;;;;7.55;4.72;;;21.60;99.90;;;;;;5058751;28;20471;-63
2022/06/29 09:19:21;;;;;;;6.18;4.38;;;21.60;99.90;;;;;;5091298;28;20043;-63
2022/06/29 09:21:52;;;;;;;6.75;4.80;;;21.60;99.90;;;;;;5083712;28;20039;-63
2022/06/29 09:24:22;;;;;;;8.43;4.25;;;21.70;99.90;;;;;;5075854;28;20105;-64
2022/06/29 09:26:51;;;;;;;9.82;4.68;;;21.70;99.90;;;;;;5069478;28;20044;-63
2022/06/29 09:29:27;;;;;;;9.95;5.40;;;21.60;99.90;;;;;;5072513;28;20105;-63
2022/06/29 09:32:04;;;;;;;9.95;5.05;;;21.50;99.90;;;;;;5067721;28;20040;-63
2022/06/29 09:34:41;;;;;;;9.73;5.28;;;21.50;99.90;;;;;;5084656;28;20424;-64
2022/06/29 09:37:10;;;;;;;12.23;5.78;;;21.40;99.90;;;;;;5073253;28;20094;-65
2022/06/29 09:39:44;;;;;;;8.57;5.28;;;21.60;99.90;;;;;;5071656;28;20056;-64
2022/06/29 09:42:18;;;;;;;7.25;4.00;;;21.70;99.90;;;;;;5071786;28;20056;-64
2022/06/29 09:44:46;;;;;;;9.52;4.57;;;21.90;99.90;;;;;;5072149;28;20052;-63
2022/06/29 09:47:19;;;;;;;7.63;4.43;;;22.00;99.90;;;;;;5077643;28;20043;-63
2022/06/29 09:49:53;;;;;;;9.60;4.22;;;22.10;99.90;;;;;;5087918;28;20051;-64
2022/06/29 09:52:20;;;;;;;6.90;3.97;;;22.10;99.90;;;;;;5083022;28;20040;-64
2022/06/29 09:54:49;;;;;;;7.28;4.50;;;22.10;99.90;;;;;;5090874;28;20085;-63
2022/06/29 09:57:19;;;;;;;6.20;4.18;;;22.00;99.90;;;;;;5073236;28;20040;-63
2022/06/29 10:02:43;;;;;;;7.22;4.32;;;21.90;99.90;;;;;;5090318;28;20044;-64
2022/06/29 10:05:14;;;;;;;7.20;4.47;;;22.00;99.90;;;;;;5086786;28;20374;-64
2022/06/29 10:07:47;;;;;;;5.63;4.25;;;22.00;99.90;;;;;;5082111;28;20063;-64
2022/06/29 10:10:16;;;;;;;8.23;4.20;;;22.20;99.90;;;;;;5083187;28;20036;-64
2022/06/29 10:16:18;;;;;;;7.22;4.43;;;22.60;99.90;;;;;;5078693;28;20059;-64
2022/06/29 10:19:14;;;;;;;7.05;5.40;;;22.80;99.90;;;;;;5071382;28;20089;-64
2022/06/29 10:21:40;;;;;;;8.13;5.55;;;22.80;99.90;;;;;;5070982;28;20048;-64
2022/06/29 10:24:08;;;;;;;7.40;5.70;;;23.00;99.90;;;;;;5071336;28;20048;-64
2022/06/29 10:26:35;;;;;;;7.40;5.57;;;23.20;99.90;;;;;;5070721;28;20036;-63
2022/06/29 10:29:05;;;;;;;;;;;22.90;99.90;;;;;;5063616;28;20138;-64
2022/06/29 10:31:50;;;;;;;13.75;6.35;;;22.80;99.90;;;;;;5071107;28;19928;-67
2022/06/29 10:34:33;;;;;;;11.00;5.40;;;22.60;99.90;;;;;;5070854;28;20371;-67
2022/06/29 10:37:07;;;;;;;11.65;4.90;;;22.60;99.90;;;;;;5071216;28;20047;-67
2022/06/29 10:39:49;;;;;;;8.65;5.88;;;22.60;99.90;;;;;;5071065;28;20060;-67
2022/06/29 10:45:14;;;;;;;14.65;6.38;;;22.70;99.90;;;;;;5064915;28;20079;-67
2022/06/29 10:47:57;;;;;;;9.35;5.10;;;22.70;99.90;;;;;;5070596;28;20051;-67
2022/06/29 10:50:29;;;;;;;8.23;5.38;;;22.70;99.90;;;;;;5069256;28;20102;-67
2022/06/29 10:52:58;;;;;;;7.90;4.95;;;22.60;99.90;;;;;;5070392;28;20044;-67
2022/06/29 10:55:30;;;;;;;6.75;4.65;;;22.80;99.90;;;;;;5071039;28;20052;-67
2022/06/29 10:57:57;;;;;;;8.52;4.50;;;22.80;99.90;;;;;;5071668;28;20040;-67
2022/06/29 11:00:31;;;;;;;6.20;4.32;;;22.80;99.90;;;;;;5070716;28;20058;-67
2022/06/29 11:03:05;;;;;;;6.68;4.25;;;22.90;99.90;;;;;;5070311;28;20106;-67
2022/06/29 11:05:34;;;;;;;6.82;4.00;;;22.90;99.90;;;;;;5070547;28;20629;-67
2022/06/29 11:13:48;;;;;;;6.45;3.05;;;22.90;99.90;;;;;;5074773;28;20082;-67
2022/06/29 11:16:15;;;;;;;5.90;3.25;;;22.80;99.90;;;;;;5074767;28;20059;-67
2022/06/29 11:18:42;;;;;;;9.82;3.22;;;22.80;99.90;;;;;;5074951;28;20052;-67
2022/06/29 11:21:09;;;;;;;7.38;3.30;;;22.80;99.90;;;;;;5073944;28;20045;-67
2022/06/29 11:23:35;;;;;;;6.10;3.58;;;22.80;99.90;;;;;;5074829;28;20094;-67
2022/06/29 11:26:04;;;;;;;7.70;3.80;;;22.70;99.90;;;;;;5074808;28;20054;-67
2022/06/29 11:28:33;;;;;;;6.50;3.00;;;22.70;99.90;;;;;;5074085;28;20086;-67
2022/06/29 11:31:08;;;;;;;7.93;3.05;;;22.70;99.90;;;;;;5066997;28;20036;-67
2022/06/29 11:33:37;;;;;;;7.47;3.35;;;22.80;99.90;;;;;;5074555;28;20052;-67
2022/06/29 11:36:06;;;;;;;6.28;3.45;;;22.80;99.90;;;;;;5073165;28;20451;-67
2022/06/29 11:38:39;;;;;;;5.57;3.15;;;22.80;99.90;;;;;;5065799;28;20079;-67
2022/06/29 11:41:19;;;;;;;5.72;3.38;;;22.60;99.90;;;;;;5054082;28;20414;-67
2022/06/29 11:44:04;;;;;;;9.55;3.80;;;22.70;99.90;;;;;;5037780;28;20559;-67
2022/06/29 11:46:37;;;;;;;10.45;3.72;;;22.70;99.90;;;;;;5068449;28;20036;-67
2022/06/29 11:52:02;;;;;;;5.28;3.65;;;22.70;99.90;;;;;;5073953;28;20044;-67
2022/06/29 11:54:47;;;;;;;6.55;3.65;;;22.80;99.90;;;;;;5074450;28;20448;-68
2022/06/29 11:57:16;;;;;;;6.57;3.28;;;22.70;99.90;;;;;;5067604;28;20044;-67
2022/06/29 11:59:44;;;;;;;4.10;2.85;;;22.70;99.90;;;;;;5074029;28;20474;-67
2022/06/29 12:02:13;;;;;;;7.25;3.30;;;22.80;99.90;;;;;;5073616;28;20418;-67
2022/06/29 12:04:42;;;;;;;5.85;3.25;;;22.80;99.90;;;;;;5073152;28;20049;-67
2022/06/29 12:07:17;;;;;;;11.25;3.50;;;22.80;99.90;;;;;;5073875;28;20132;-67
2022/06/29 12:09:51;;;;;;;6.68;2.90;;;22.80;99.90;;;;;;5073952;28;20072;-67
2022/06/29 12:12:18;;;;;;;4.53;3.20;;;22.80;99.90;;;;;;5073848;28;20036;-67
2022/06/29 12:14:44;;;;;;;4.53;3.33;;;22.90;99.90;;;;;;5070875;28;20037;-67
2022/06/29 12:17:13;;;;;;;6.95;4.35;;;23.00;99.90;;;;;;5073671;28;20111;-67
2022/06/29 12:19:44;;;;;;;8.35;4.45;;;22.90;99.90;;;;;;5073658;28;20048;-67
2022/06/29 12:22:10;;;;;;;9.10;3.97;;;22.90;99.90;;;;;;5071982;28;21753;-67
2022/06/29 12:24:38;;;;;;;7.05;3.20;;;22.90;99.90;;;;;;5073571;28;20044;-67
2022/06/29 12:27:05;;;;;;;9.15;3.13;;;22.90;99.90;;;;;;5073536;28;20041;-67
2022/06/29 12:29:32;;;;;;;3.90;2.83;;;22.80;99.90;;;;;;5073404;28;20040;-67
2022/06/29 12:31:58;;;;;;;6.88;3.10;;;22.80;99.90;;;;;;5072587;28;20033;-67
2022/06/29 12:34:25;;;;;;;;;;;22.70;99.90;;;;;;5073690;28;20045;-67
2022/06/29 12:36:56;;;;;;;6.20;3.45;;;22.50;99.90;;;;;;5073610;28;20015;-67
2022/06/29 12:39:23;;;;;;;6.95;3.40;;;22.50;99.90;;;;;;5072793;28;20040;-67
2022/06/29 12:41:49;;;;;;;7.43;3.22;;;22.60;99.90;;;;;;5072854;28;20048;-67
2022/06/29 12:44:16;;;;;;;5.63;2.95;;;22.80;99.90;;;;;;5073250;28;20051;-67
2022/06/29 12:46:44;;;;;;;9.25;3.17;;;22.80;99.90;;;;;;5072495;28;20097;-67
2022/06/29 12:49:10;;;;;;;4.28;2.85;;;22.90;99.90;;;;;;5073032;28;20158;-67
2022/06/29 12:51:37;;;;;;;10.05;3.20;;;23.00;99.90;;;;;;5072784;28;20154;-67
2022/06/29 12:54:04;;;;;;;6.15;3.33;;;23.00;99.90;;;;;;5071792;28;20456;-67
2022/06/29 12:56:31;;;;;;;5.38;3.22;;;23.00;99.90;;;;;;5072272;28;20047;-67
2022/06/29 12:58:57;;;;;;;5.53;2.90;;;23.00;99.90;;;;;;5072423;28;20094;-67
2022/06/29 13:01:24;;;;;;;8.10;3.00;;;22.90;99.90;;;;;;5072585;28;20497;-67
2022/06/29 13:03:51;;;;;;;5.82;3.35;;;23.00;99.90;;;;;;5072907;28;20460;-67
2022/06/29 13:06:18;;;;;;;;;;;23.00;99.90;;;;;;5073518;28;20122;-67
2022/06/29 13:08:45;;;;;;;6.03;3.03;;;23.10;99.90;;;;;;5065518;28;19970;-67
2022/06/29 13:11:11;;;;;;;8.50;3.13;;;23.20;99.90;;;;;;5075898;28;20032;-67
2022/06/29 13:13:40;;;;;;;5.13;3.38;;;23.00;99.90;;;;;;5091750;28;20036;-67
2022/06/29 13:16:07;;;;;;;5.50;2.70;;;22.90;99.90;;;;;;5081985;28;20431;-67
2022/06/29 13:18:34;;;;;;;5.97;3.10;;;22.90;99.90;;;;;;5070375;28;20075;-67
2022/06/29 13:21:01;;;;;;;4.45;3.00;;;22.90;99.90;;;;;;5070426;28;20036;-67